METAR Data
IDs: Format: Raw Decoded Include TAF

Data at: 0514 UTC 18 Jan 2022

EKRN 180450Z AUTO 33005KT 9999 NCD 02/M02 Q1029